createdAt,value
2023-04-30T00:04:29.052Z,20.9
2023-04-30T00:09:28.983Z,14.9
2023-04-30T00:14:28.933Z,14.9
2023-04-30T00:19:28.853Z,14.6
2023-04-30T00:24:28.890Z,15.1
2023-04-30T00:29:28.829Z,14.2
2023-04-30T00:34:28.790Z,14.5
2023-04-30T00:39:28.631Z,15.3
2023-04-30T00:44:28.736Z,14.8
2023-04-30T00:49:28.631Z,16.4
2023-04-30T00:54:28.546Z,15.8
2023-04-30T00:59:28.415Z,16.6
2023-04-30T01:04:28.357Z,17.3
2023-04-30T01:09:28.329Z,16.6
2023-04-30T01:14:28.319Z,16.0
2023-04-30T01:19:28.206Z,17.2
2023-04-30T01:24:28.190Z,18.3
2023-04-30T01:29:29.089Z,17.4
2023-04-30T01:34:28.025Z,16.5
2023-04-30T01:39:28.032Z,16.9
2023-04-30T01:44:28.896Z,18.1
2023-04-30T01:49:27.906Z,16.2
2023-04-30T01:54:27.828Z,15.0
2023-04-30T01:59:27.920Z,14.9
2023-04-30T02:04:27.883Z,16.7
2023-04-30T02:09:27.650Z,17.4
2023-04-30T02:14:27.700Z,20.4
2023-04-30T02:19:27.558Z,20.2
2023-04-30T02:24:27.486Z,21.6
2023-04-30T02:29:27.424Z,27.0
2023-04-30T02:34:27.391Z,30.3
2023-04-30T02:39:27.325Z,31.4
2023-04-30T02:44:27.266Z,27.4
2023-04-30T02:49:27.265Z,28.9
2023-04-30T02:54:27.126Z,33.4
2023-04-30T02:59:27.181Z,28.7
2023-04-30T03:04:27.064Z,27.5
2023-04-30T03:09:27.181Z,28.7
2023-04-30T03:14:26.886Z,27.3
2023-04-30T03:19:26.924Z,28.6
2023-04-30T03:24:26.813Z,30.1
2023-04-30T03:29:26.835Z,32.0
2023-04-30T03:34:26.769Z,33.2
2023-04-30T03:39:26.658Z,30.8
2023-04-30T03:44:26.621Z,36.8
2023-04-30T03:49:26.856Z,37.1
2023-04-30T03:54:26.498Z,31.2
2023-04-30T03:59:35.278Z,33.1
2023-04-30T04:04:26.395Z,33.0
2023-04-30T04:09:26.346Z,36.2
2023-04-30T04:14:26.275Z,30.0
2023-04-30T04:19:26.191Z,37.4
2023-04-30T04:24:26.159Z,35.4
2023-04-30T04:29:26.098Z,36.4
2023-04-30T04:34:26.051Z,35.4
2023-04-30T04:39:25.993Z,36.7
2023-04-30T04:44:25.913Z,35.6
2023-04-30T04:49:25.874Z,36.8
2023-04-30T04:54:25.809Z,42.3
2023-04-30T04:59:25.751Z,39.8
2023-04-30T05:04:25.690Z,38.0
2023-04-30T05:09:25.679Z,47.1
2023-04-30T05:14:26.704Z,43.0
2023-04-30T05:19:25.550Z,42.2
2023-04-30T05:24:25.465Z,27.9
2023-04-30T05:29:25.463Z,30.9
2023-04-30T05:34:25.382Z,34.3
2023-04-30T05:39:25.287Z,31.2
2023-04-30T05:44:25.275Z,28.8
2023-04-30T05:49:25.215Z,28.9
2023-04-30T05:54:25.141Z,27.0
2023-04-30T05:59:25.122Z,25.6
2023-04-30T06:04:25.054Z,23.5
2023-04-30T06:09:25.073Z,22.3
2023-04-30T06:14:25.943Z,20.9
2023-04-30T06:19:24.945Z,21.7
2023-04-30T06:24:24.817Z,22.5
2023-04-30T06:29:24.900Z,21.1
2023-04-30T06:34:24.851Z,20.2
2023-04-30T06:39:24.632Z,20.1
2023-04-30T06:44:24.632Z,18.2
2023-04-30T06:49:24.560Z,17.7
2023-04-30T06:54:24.465Z,17.3
2023-04-30T06:59:24.468Z,16.6
2023-04-30T07:04:24.363Z,15.6
2023-04-30T07:09:24.320Z,15.0
2023-04-30T07:14:24.293Z,14.7
2023-04-30T07:19:24.250Z,13.8
2023-04-30T07:24:24.150Z,13.1
2023-04-30T07:29:24.154Z,12.8
2023-04-30T07:34:24.051Z,12.0
2023-04-30T07:39:23.996Z,10.6
2023-04-30T07:44:23.909Z,10.2
2023-04-30T07:49:23.892Z,8.8
2023-04-30T07:54:23.842Z,9.4
2023-04-30T07:59:23.748Z,10.0
2023-04-30T08:04:23.773Z,9.1
2023-04-30T08:09:25.693Z,7.3
2023-04-30T08:14:23.654Z,7.0
2023-04-30T08:19:23.624Z,7.3
2023-04-30T08:24:23.471Z,8.1
2023-04-30T08:29:25.418Z,7.9
2023-04-30T08:34:23.381Z,8.1
2023-04-30T08:39:24.394Z,8.7
2023-04-30T08:44:23.266Z,8.7
2023-04-30T08:49:32.067Z,7.8
2023-04-30T08:54:23.158Z,9.4
2023-04-30T08:59:23.101Z,7.3
2023-04-30T09:04:23.120Z,6.9
2023-04-30T09:09:23.070Z,6.2
2023-04-30T09:14:23.040Z,6.4
2023-04-30T09:19:22.870Z,6.5
2023-04-30T09:24:22.816Z,6.2
2023-04-30T09:29:22.787Z,6.4
2023-04-30T09:34:22.751Z,5.7
2023-04-30T09:39:22.660Z,6.6
2023-04-30T09:44:22.720Z,5.1
2023-04-30T09:49:22.580Z,6.4
2023-04-30T09:54:22.542Z,4.4
2023-04-30T09:59:22.561Z,4.0
2023-04-30T10:04:22.571Z,4.3
2023-04-30T10:09:22.364Z,3.5
2023-04-30T10:14:22.356Z,3.6
2023-04-30T10:19:22.246Z,3.8
2023-04-30T10:24:22.214Z,3.1
2023-04-30T10:29:22.142Z,3.0
2023-04-30T10:34:22.246Z,2.1
2023-04-30T10:39:22.049Z,2.5
2023-04-30T10:44:22.137Z,2.7
2023-04-30T10:49:22.000Z,3.6
2023-04-30T10:54:21.894Z,3.1
2023-04-30T10:59:21.878Z,3.9
2023-04-30T11:04:21.861Z,3.4
2023-04-30T11:09:21.751Z,3.0
2023-04-30T11:14:21.749Z,2.3
2023-04-30T11:19:21.666Z,2.3
2023-04-30T11:24:21.597Z,2.3
2023-04-30T11:29:21.603Z,2.4
2023-04-30T11:34:21.483Z,2.2
2023-04-30T11:39:21.527Z,2.4
2023-04-30T11:44:21.495Z,2.5
2023-04-30T11:49:21.327Z,1.9
2023-04-30T11:54:21.299Z,2.1
2023-04-30T11:59:21.267Z,2.2
2023-04-30T12:04:21.284Z,1.6
2023-04-30T12:09:21.223Z,1.8
2023-04-30T12:14:21.108Z,1.4
2023-04-30T12:19:21.091Z,1.6
2023-04-30T12:24:21.015Z,2.0
2023-04-30T12:29:24.500Z,1.9
2023-04-30T12:34:21.008Z,1.9
2023-04-30T12:39:21.019Z,1.8
2023-04-30T12:44:20.806Z,2.0
2023-04-30T12:49:20.767Z,1.8
2023-04-30T12:54:20.733Z,1.5
2023-04-30T12:59:20.876Z,1.5
2023-04-30T13:04:20.667Z,1.4
2023-04-30T13:09:20.578Z,1.2
2023-04-30T13:14:20.515Z,1.6
2023-04-30T13:19:20.408Z,1.5
2023-04-30T13:24:23.794Z,1.8
2023-04-30T13:29:20.354Z,1.3
2023-04-30T13:34:20.392Z,1.4
2023-04-30T13:39:20.339Z,0.9
2023-04-30T13:44:20.186Z,1.6
2023-04-30T13:49:20.131Z,1.0
2023-04-30T13:54:20.124Z,1.1
2023-04-30T13:59:20.044Z,1.6
2023-04-30T14:04:20.004Z,1.1
2023-04-30T14:09:21.061Z,1.2
2023-04-30T14:14:19.840Z,1.2
2023-04-30T14:19:19.834Z,1.5
2023-04-30T14:24:19.778Z,1.2
2023-04-30T14:29:21.589Z,1.3
2023-04-30T14:34:20.743Z,1.8
2023-04-30T14:39:19.676Z,1.4
2023-04-30T14:44:20.595Z,1.3
2023-04-30T14:49:19.488Z,1.3
2023-04-30T14:54:19.508Z,1.5
2023-04-30T14:59:19.425Z,1.2
2023-04-30T15:04:19.386Z,1.1
2023-04-30T15:09:19.367Z,1.1
2023-04-30T15:14:19.236Z,0.9
2023-04-30T15:19:19.308Z,0.8
2023-04-30T15:24:19.103Z,1.4
2023-04-30T15:29:27.867Z,1.2
2023-04-30T15:34:18.987Z,1.1
2023-04-30T15:39:19.087Z,1.2
2023-04-30T15:44:18.941Z,1.1
2023-04-30T15:49:18.880Z,1.1
2023-04-30T15:54:18.861Z,1.0
2023-04-30T15:59:19.781Z,1.3
2023-04-30T16:04:18.686Z,1.3
2023-04-30T16:09:18.609Z,1.0
2023-04-30T16:14:18.572Z,1.3
2023-04-30T16:19:18.610Z,1.4
2023-04-30T16:24:18.546Z,1.0
2023-04-30T16:29:18.444Z,1.0
2023-04-30T16:34:18.530Z,1.1
2023-04-30T16:39:18.359Z,0.8
2023-04-30T16:44:18.235Z,1.9
2023-04-30T16:49:18.171Z,1.4
2023-04-30T16:54:18.165Z,1.1
2023-04-30T16:59:18.156Z,1.1
2023-04-30T17:04:18.094Z,1.0
2023-04-30T17:09:18.026Z,1.0
2023-04-30T17:14:17.994Z,1.0
2023-04-30T17:19:17.860Z,1.7
2023-04-30T17:24:17.767Z,1.3
2023-04-30T17:29:17.732Z,1.1
2023-04-30T17:34:17.668Z,1.1
2023-04-30T17:39:17.735Z,1.3
2023-04-30T17:44:17.675Z,1.4
2023-04-30T17:49:17.584Z,1.3
2023-04-30T17:54:17.571Z,1.3
2023-04-30T17:59:17.371Z,1.4
2023-04-30T18:04:17.437Z,1.3
2023-04-30T18:09:17.296Z,1.2
2023-04-30T18:14:17.225Z,1.2
2023-04-30T18:19:17.759Z,1.4
2023-04-30T18:24:17.240Z,1.2
2023-04-30T18:29:17.793Z,1.4
2023-04-30T18:34:17.044Z,1.4
2023-04-30T18:39:16.979Z,1.5
2023-04-30T18:44:16.892Z,1.5
2023-04-30T18:49:16.833Z,1.5
2023-04-30T18:54:16.846Z,1.1
2023-04-30T18:59:16.732Z,1.6
2023-04-30T19:04:16.659Z,1.4
2023-04-30T19:09:16.724Z,1.5
2023-04-30T19:14:16.653Z,1.4
2023-04-30T19:19:16.504Z,1.5
2023-04-30T19:24:16.477Z,1.9
2023-04-30T19:29:16.392Z,2.4
2023-04-30T19:34:16.387Z,2.6
2023-04-30T19:39:16.341Z,2.5
2023-04-30T19:44:16.265Z,2.3
2023-04-30T19:49:16.185Z,2.5
2023-04-30T19:54:16.108Z,2.7
2023-04-30T19:59:16.074Z,3.5
2023-04-30T20:04:16.002Z,3.1
2023-04-30T20:09:15.988Z,3.5
2023-04-30T20:14:15.921Z,2.5
2023-04-30T20:19:15.903Z,2.3
2023-04-30T20:24:15.792Z,2.8
2023-04-30T20:29:15.786Z,2.6
2023-04-30T20:34:15.698Z,3.0
2023-04-30T20:39:15.648Z,2.6
2023-04-30T20:44:15.540Z,2.9
2023-04-30T20:49:15.564Z,2.5
2023-04-30T20:54:15.566Z,2.6
2023-04-30T20:59:15.468Z,2.3
2023-04-30T21:04:15.396Z,2.3
2023-04-30T21:09:15.334Z,2.2
2023-04-30T21:14:15.289Z,2.3
2023-04-30T21:19:15.218Z,2.4
2023-04-30T21:24:15.120Z,2.5
2023-04-30T21:29:24.914Z,2.6
2023-04-30T21:34:14.971Z,2.6
2023-04-30T21:39:15.054Z,3.5
2023-04-30T21:44:14.959Z,3.1
2023-04-30T21:49:14.905Z,3.5
2023-04-30T21:54:14.851Z,3.8
2023-04-30T21:59:14.789Z,3.5
2023-04-30T22:04:14.714Z,3.6
2023-04-30T22:09:14.590Z,4.2
2023-04-30T22:14:14.633Z,7.7
2023-04-30T22:19:14.601Z,5.0
2023-04-30T22:24:14.539Z,4.1
2023-04-30T22:29:14.442Z,3.8
2023-04-30T22:34:17.757Z,4.2
2023-04-30T22:39:14.296Z,3.6
2023-04-30T22:44:14.220Z,4.3
2023-04-30T22:49:27.366Z,4.2
2023-04-30T22:54:15.096Z,4.2
2023-04-30T22:59:15.114Z,2.7
2023-04-30T23:04:14.076Z,3.9
2023-04-30T23:09:13.968Z,3.2
2023-04-30T23:14:13.890Z,3.4
2023-04-30T23:19:15.902Z,3.2
2023-04-30T23:24:13.787Z,3.0
2023-04-30T23:29:13.715Z,3.1
2023-04-30T23:34:13.653Z,3.2
2023-04-30T23:39:13.645Z,3.1
2023-04-30T23:44:13.534Z,4.2
2023-04-30T23:49:13.598Z,3.6
2023-04-30T23:54:13.425Z,3.6
2023-04-30T23:59:13.447Z,3.5
